Time;durP1;ratioP1;P1;durP2;ratioP2;P2;SDS_P1;SDS_P2;PMS_P1;PMS_P2;Temp;Humidity;BMP_temperature;BMP_pressure;BME280_temperature;BME280_humidity;BME280_pressure;Samples;Min_cycle;Max_cycle;Signal;HPM_P1;HPM_P2
2022/07/25 00:01:31;;;;;;;13.75;10.88;;;;;;;29.15;41.38;99760.25;5027750;28;20087;-29
2022/07/25 00:03:56;;;;;;;13.13;11.43;;;;;;;29.01;41.83;99779.84;5027577;28;20818;-31
2022/07/25 00:06:21;;;;;;;12.48;11.07;;;;;;;28.85;41.95;99766.91;5027457;28;20113;-28
2022/07/25 00:08:47;;;;;;;12.88;11.45;;;;;;;28.53;42.91;99749.50;5027162;28;20037;-31
2022/07/25 00:11:12;;;;;;;12.02;10.85;;;;;;;28.60;43.57;99771.66;5027774;28;20080;-29
2022/07/25 00:13:38;;;;;;;12.63;11.35;;;;;;;28.61;43.20;99765.03;5009192;28;20036;-28
2022/07/25 00:16:04;;;;;;;12.77;11.48;;;;;;;28.59;43.41;99766.53;5027307;28;20049;-28
2022/07/25 00:18:29;;;;;;;18.80;11.57;;;;;;;28.60;43.31;99762.63;5027785;28;20071;-29
2022/07/25 00:20:55;;;;;;;12.00;10.80;;;;;;;28.52;43.50;99755.34;5027689;28;20094;-28
2022/07/25 00:23:20;;;;;;;13.23;11.52;;;;;;;28.48;43.63;99765.38;5025445;28;20118;-31
2022/07/25 00:25:46;;;;;;;14.45;11.20;;;;;;;28.44;43.67;99776.22;5027190;28;20045;-28
2022/07/25 00:28:11;;;;;;;13.57;10.63;;;;;;;28.28;43.90;99767.13;5027110;28;20031;-29
2022/07/25 00:30:37;;;;;;;11.68;10.48;;;;;;;28.18;44.21;99760.19;5027350;28;20044;-32
2022/07/25 00:33:02;;;;;;;15.38;10.27;;;;;;;28.20;44.38;99766.13;5027298;28;20041;-35
2022/07/25 00:35:28;;;;;;;13.77;10.50;;;;;;;28.32;44.26;99779.81;5026969;28;20037;-36
2022/07/25 00:37:53;;;;;;;13.88;10.45;;;;;;;28.18;44.47;99779.38;5027342;28;20044;-27
2022/07/25 00:40:19;;;;;;;13.48;10.25;;;;;;;28.36;44.07;99805.41;5027183;28;20080;-28
2022/07/25 00:42:44;;;;;;;14.55;10.73;;;;;;;28.41;44.57;99813.38;5027104;28;20025;-29
2022/07/25 00:45:10;;;;;;;12.57;10.27;;;;;;;28.28;44.86;99805.50;5027267;28;20029;-28
2022/07/25 00:47:35;;;;;;;13.00;10.43;;;;;;;28.33;44.63;99825.28;5025625;28;20049;-28
2022/07/25 00:50:01;;;;;;;16.02;10.40;;;;;;;28.15;45.51;99829.41;5027700;28;20077;-30
2022/07/25 00:52:26;;;;;;;16.05;11.10;;;;;;;27.88;46.39;99820.72;5027071;28;20018;-31
2022/07/25 00:54:52;;;;;;;15.38;10.68;;;;;;;27.82;46.98;99827.53;5027017;28;20033;-34
2022/07/25 00:57:17;;;;;;;19.42;10.50;;;;;;;27.56;48.25;99817.66;5025230;28;20033;-33
2022/07/25 00:59:43;;;;;;;17.65;10.80;;;;;;;27.20;49.12;99823.81;5026783;28;20026;-33
2022/07/25 01:02:09;;;;;;;13.10;9.57;;;;;;;26.94;49.28;99815.84;5026937;28;20084;-29
2022/07/25 01:04:34;;;;;;;15.23;9.98;;;;;;;26.88;48.23;99825.38;5027176;28;20039;-29
2022/07/25 01:07:00;;;;;;;15.57;8.55;;;;;;;26.51;47.38;99825.13;5026959;28;20490;-28
2022/07/25 01:09:26;;;;;;;16.98;10.20;;;;;;;26.55;46.69;99821.41;5025201;28;20033;-30
2022/07/25 01:11:52;;;;;;;18.23;10.10;;;;;;;26.59;46.42;99821.56;5026746;28;20039;-29
2022/07/25 01:14:17;;;;;;;17.02;10.10;;;;;;;26.39;47.03;99817.66;5026835;28;20476;-28
2022/07/25 01:16:42;;;;;;;15.63;9.98;;;;;;;26.25;48.17;99817.88;5026737;28;20054;-30
2022/07/25 01:19:09;;;;;;;17.10;9.60;;;;;;;26.38;48.61;99844.19;5027366;28;20149;-33
2022/07/25 01:21:41;;;;;;;11.85;10.35;;;;;;;26.25;49.06;99842.47;5030532;28;20064;-29
2022/07/25 01:24:07;;;;;;;12.65;10.43;;;;;;;26.32;49.28;99840.03;5030633;28;20047;-31
2022/07/25 01:26:33;;;;;;;12.88;10.60;;;;;;;26.16;49.32;99808.94;5030570;28;20501;-28
2022/07/25 01:28:58;;;;;;;15.27;11.00;;;;;;;26.17;49.90;99833.19;5030823;28;20083;-37
2022/07/25 01:31:24;;;;;;;11.45;10.18;;;;;;;26.06;50.55;99821.84;5030490;28;20033;-34
2022/07/25 01:33:50;;;;;;;12.00;10.23;;;;;;;26.20;50.70;99831.75;5029129;28;20122;-28
2022/07/25 01:36:16;;;;;;;13.63;11.15;;;;;;;25.69;51.49;99812.47;5030438;28;20025;-28
2022/07/25 01:38:41;;;;;;;14.98;10.10;;;;;;;25.85;51.87;99826.41;5029017;28;20057;-29
2022/07/25 01:41:06;;;;;;;14.93;11.57;;;;;;;25.62;52.49;99807.53;5028805;28;20025;-30
2022/07/25 01:43:32;;;;;;;14.82;11.30;;;;;;;25.63;53.28;99820.03;5030235;28;20017;-33
2022/07/25 01:45:57;;;;;;;14.10;11.05;;;;;;;25.56;53.93;99803.38;5028918;28;20040;-31
2022/07/25 01:48:23;;;;;;;12.20;10.18;;;;;;;25.41;54.54;99806.59;5030232;28;20522;-34
2022/07/25 01:50:48;;;;;;;15.68;10.25;;;;;;;25.18;55.71;99798.59;5030025;28;20038;-28
2022/07/25 01:53:14;;;;;;;14.18;10.38;;;;;;;25.15;56.78;99804.72;5029861;28;20501;-30
2022/07/25 01:55:39;;;;;;;12.80;10.45;;;;;;;25.32;56.36;99811.28;5029701;28;20665;-28
2022/07/25 01:58:05;;;;;;;12.77;10.10;;;;;;;25.33;56.68;99810.16;5029875;28;20029;-32
2022/07/25 02:00:30;;;;;;;13.02;10.35;;;;;;;25.15;57.62;99787.50;5028502;28;20033;-29
2022/07/25 02:05:40;;;;;;;11.90;10.27;;;;;;;24.89;57.75;99787.53;5029553;28;20087;-30
2022/07/25 02:08:05;;;;;;;12.75;10.23;;;;;;;24.72;58.14;99797.31;5028268;28;20402;-31
2022/07/25 02:10:31;;;;;;;11.88;9.98;;;;;;;24.83;56.97;99804.06;5029570;28;20116;-28
2022/07/25 02:12:57;;;;;;;14.43;10.88;;;;;;;24.69;56.49;99813.53;5028216;28;20108;-29
2022/07/25 02:15:22;;;;;;;16.45;10.40;;;;;;;24.30;57.28;99796.91;5029012;28;20030;-29
2022/07/25 02:17:48;;;;;;;15.75;11.23;;;;;;;24.23;57.16;99786.50;5029578;28;20037;-28
2022/07/25 02:20:13;;;;;;;12.73;10.68;;;;;;;24.35;57.08;99804.94;5029727;28;20036;-28
2022/07/25 02:22:39;;;;;;;15.45;11.15;;;;;;;24.26;57.40;99787.78;5029566;28;20030;-29
2022/07/25 02:25:05;;;;;;;12.93;10.43;;;;;;;24.53;56.94;99788.66;5029148;28;20812;-31
2022/07/25 02:27:30;;;;;;;12.50;10.30;;;;;;;24.80;56.00;99793.78;5027623;28;20033;-34
2022/07/25 02:29:56;;;;;;;12.57;11.00;;;;;;;24.99;54.76;99800.88;5028284;28;20029;-30
2022/07/25 02:32:21;;;;;;;13.98;10.38;;;;;;;25.08;54.25;99793.47;5029885;28;20037;-28
2022/07/25 02:34:46;;;;;;;12.93;10.80;;;;;;;25.18;53.97;99801.31;5027652;28;20516;-30
2022/07/25 02:37:12;;;;;;;12.63;10.40;;;;;;;25.26;54.12;99803.25;5029532;28;20029;-29
2022/07/25 02:39:38;;;;;;;13.07;10.32;;;;;;;25.17;54.57;99786.09;5028862;28;20021;-31
2022/07/25 02:42:04;;;;;;;11.82;10.55;;;;;;;25.19;54.40;99794.75;5027947;28;20040;-29
2022/07/25 02:44:29;;;;;;;12.15;10.43;;;;;;;25.11;54.41;99795.56;5029206;28;20104;-31
2022/07/25 02:46:54;;;;;;;11.88;10.32;;;;;;;24.83;55.24;99784.97;5029472;28;20060;-31
2022/07/25 02:49:20;;;;;;;11.35;10.07;;;;;;;25.16;54.19;99798.09;5028821;28;20295;-31
2022/07/25 02:51:45;;;;;;;12.02;9.93;;;;;;;24.91;54.85;99788.00;5028925;28;20060;-32
2022/07/25 02:54:11;;;;;;;12.90;10.85;;;;;;;24.79;55.37;99803.09;5028725;28;20029;-33
2022/07/25 02:56:36;;;;;;;12.40;11.07;;;;;;;24.96;55.00;99802.28;5028989;28;20021;-30
2022/07/25 02:59:02;;;;;;;13.02;10.80;;;;;;;25.04;54.66;99797.97;5029517;28;20032;-28
2022/07/25 03:01:28;;;;;;;14.82;10.57;;;;;;;25.23;54.09;99792.19;5027326;28;20529;-29
2022/07/25 03:03:54;;;;;;;15.48;10.65;;;;;;;25.37;53.90;99800.19;5029085;28;20100;-29
2022/07/25 03:06:19;;;;;;;12.98;10.20;;;;;;;25.55;53.24;99799.03;5028972;28;20083;-30
2022/07/25 03:08:45;;;;;;;13.93;10.90;;;;;;;25.50;52.48;99793.75;5028335;28;20075;-28
2022/07/25 03:11:12;;;;;;;14.02;10.90;;;;;;;25.52;52.88;99802.41;5027442;28;20037;-29
2022/07/25 03:13:37;;;;;;;15.70;11.65;;;;;;;25.37;53.13;99805.66;5027011;28;20032;-28
2022/07/25 03:16:03;;;;;;;19.23;11.27;;;;;;;25.28;53.61;99802.16;5026820;28;20041;-29
2022/07/25 03:18:29;;;;;;;14.13;10.77;;;;;;;25.16;53.55;99792.66;5028423;28;20053;-29
2022/07/25 03:20:54;;;;;;;13.10;10.85;;;;;;;25.06;53.91;99787.53;5028662;28;20104;-31
2022/07/25 03:23:20;;;;;;;15.63;11.13;;;;;;;25.11;54.14;99794.75;5028526;28;20028;-29
2022/07/25 03:25:45;;;;;;;15.43;11.57;;;;;;;25.29;53.67;99798.28;5028612;28;20033;-30
2022/07/25 03:28:10;;;;;;;18.17;11.98;;;;;;;25.32;53.83;99820.28;5028505;28;20165;-29
2022/07/25 03:30:36;;;;;;;17.77;10.95;;;;;;;25.30;53.77;99829.94;5028323;28;20587;-30
2022/07/25 03:33:01;;;;;;;13.65;11.02;;;;;;;25.14;54.37;99819.47;5028324;28;20044;-28
2022/07/25 03:35:27;;;;;;;14.43;10.93;;;;;;;25.13;54.75;99831.50;5026508;28;20041;-30
2022/07/25 03:37:53;;;;;;;12.27;10.60;;;;;;;25.30;54.19;99833.44;5027897;28;20025;-30
2022/07/25 03:40:18;;;;;;;18.67;12.00;;;;;;;25.49;53.77;99835.81;5026699;28;20099;-29
2022/07/25 03:42:44;;;;;;;14.98;12.15;;;;;;;25.41;54.29;99840.16;5028143;28;20025;-32
2022/07/25 03:45:09;;;;;;;16.27;11.00;;;;;;;25.58;54.00;99844.81;5028177;28;20116;-30
2022/07/25 03:47:35;;;;;;;13.95;11.52;;;;;;;25.13;56.03;99847.88;5028156;28;20034;-30
2022/07/25 03:50:01;;;;;;;14.50;11.95;;;;;;;25.04;56.69;99847.88;5026570;28;20033;-28
2022/07/25 03:52:26;;;;;;;17.20;11.82;;;;;;;24.96;57.26;99856.06;5027870;28;20033;-30
2022/07/25 03:54:52;;;;;;;16.88;11.35;;;;;;;24.90;57.40;99854.59;5028146;28;20115;-28
2022/07/25 03:57:17;;;;;;;14.70;11.00;;;;;;;25.12;56.15;99865.38;5027658;28;20021;-32
2022/07/25 03:59:43;;;;;;;15.35;10.77;;;;;;;25.08;56.21;99869.06;5026477;28;20409;-33
2022/07/25 04:02:08;;;;;;;14.27;11.70;;;;;;;25.10;56.87;99866.81;5026378;28;20104;-32
2022/07/25 04:04:34;;;;;;;21.27;11.55;;;;;;;25.09;57.12;99837.91;5027409;28;20429;-28
2022/07/25 04:06:59;;;;;;;16.63;11.35;;;;;;;25.26;55.88;99852.38;5027612;28;20105;-32
2022/07/25 04:09:25;;;;;;;19.27;12.88;;;;;;;25.34;56.56;99850.00;5027449;28;20379;-28
2022/07/25 04:11:50;;;;;;;15.40;12.50;;;;;;;25.31;56.60;99842.44;5027601;28;20052;-29
2022/07/25 04:14:16;;;;;;;14.15;12.27;;;;;;;25.42;57.00;99863.63;5027530;28;20071;-28
2022/07/25 04:16:41;;;;;;;15.40;12.35;;;;;;;25.55;56.89;99867.28;5025538;28;20041;-32
2022/07/25 04:19:07;;;;;;;16.55;12.25;;;;;;;25.15;57.58;99842.91;5027289;28;20029;-29
2022/07/25 04:21:32;;;;;;;14.98;12.82;;;;;;;25.49;57.84;99863.13;5026851;28;20068;-30
2022/07/25 04:23:58;;;;;;;18.27;12.57;;;;;;;25.46;57.25;99850.13;5025967;28;20049;-31
2022/07/25 04:26:24;;;;;;;14.15;12.65;;;;;;;25.77;56.53;99862.75;5027201;28;20059;-32
2022/07/25 04:28:49;;;;;;;14.70;12.77;;;;;;;25.76;56.15;99850.19;5027395;28;20029;-31
2022/07/25 04:31:15;;;;;;;15.48;12.13;;;;;;;25.75;56.43;99854.88;5027192;28;20056;-29
2022/07/25 04:33:41;;;;;;;15.88;12.85;;;;;;;25.72;56.70;99860.97;5025580;28;20033;-28
2022/07/25 04:36:07;;;;;;;17.40;12.93;;;;;;;25.82;57.16;99876.22;5025624;28;20025;-28
2022/07/25 04:38:33;;;;;;;16.85;12.88;;;;;;;26.09;56.95;99868.75;5027698;28;20040;-31
2022/07/25 04:40:59;;;;;;;17.80;12.60;;;;;;;26.07;56.74;99866.34;5025784;28;20489;-29
2022/07/25 04:43:24;;;;;;;21.35;13.35;;;;;;;25.92;57.62;99864.97;5025602;28;20071;-29
2022/07/25 04:45:50;;;;;;;29.75;14.00;;;;;;;26.01;57.29;99862.19;5026906;28;20040;-33
2022/07/25 04:48:15;;;;;;;19.45;13.02;;;;;;;26.09;58.29;99860.56;5026979;28;20052;-29
2022/07/25 04:50:41;;;;;;;18.05;12.52;;;;;;;26.19;54.08;99858.25;5026757;28;20040;-31
2022/07/25 04:53:06;;;;;;;17.90;12.90;;;;;;;26.17;57.53;99871.44;5027120;28;20095;-29
2022/07/25 04:55:32;;;;;;;15.15;13.55;;;;;;;26.11;58.63;99867.28;5029327;28;20033;-29
2022/07/25 04:57:58;;;;;;;19.15;13.02;;;;;;;26.27;58.33;99856.63;5031048;28;20040;-29
2022/07/25 05:00:24;;;;;;;17.52;13.63;;;;;;;26.30;58.78;99864.19;5029608;28;20039;-33
2022/07/25 05:02:50;;;;;;;17.45;12.30;;;;;;;26.24;58.03;99860.81;5030919;28;20021;-28
2022/07/25 05:05:16;;;;;;;15.00;11.98;;;;;;;26.51;57.78;99852.47;5030577;28;20124;-28
2022/07/25 05:07:41;;;;;;;14.65;12.63;;;;;;;26.94;55.96;99854.94;5030607;28;20537;-33
2022/07/25 05:10:07;;;;;;;14.75;12.07;;;;;;;27.13;54.37;99859.91;5030970;28;20107;-29
2022/07/25 05:12:32;;;;;;;13.77;11.60;;;;;;;27.16;51.96;99853.00;5029289;28;20622;-28
2022/07/25 05:14:58;;;;;;;22.38;13.50;;;;;;;27.16;52.42;99844.78;5030464;28;20029;-28
2022/07/25 05:17:23;;;;;;;17.45;13.07;;;;;;;27.35;52.08;99849.78;5028930;28;20906;-34
2022/07/25 05:19:49;;;;;;;15.27;12.82;;;;;;;27.24;50.51;99838.47;5030357;28;20420;-28
2022/07/25 05:22:14;;;;;;;14.82;11.43;;;;;;;27.20;49.47;99849.25;5030476;28;20095;-33
2022/07/25 05:24:40;;;;;;;16.67;12.48;;;;;;;27.34;51.14;99849.00;5030533;28;20497;-28
2022/07/25 05:27:05;;;;;;;14.70;11.75;;;;;;;27.43;50.89;99848.91;5030589;28;20052;-30
2022/07/25 05:29:31;;;;;;;14.77;11.30;;;;;;;27.59;50.69;99869.03;5030450;28;20083;-29
2022/07/25 05:31:57;;;;;;;16.60;12.35;;;;;;;27.76;50.46;99856.28;5028885;28;20159;-29
2022/07/25 05:34:22;;;;;;;15.90;12.27;;;;;;;27.63;51.10;99859.00;5028917;28;20090;-29
2022/07/25 05:36:48;;;;;;;15.07;11.40;;;;;;;27.83;50.44;99870.25;5030531;28;20033;-29
2022/07/25 05:39:13;;;;;;;15.95;11.32;;;;;;;27.91;49.61;99869.38;5030519;28;20425;-27
2022/07/25 05:41:39;;;;;;;12.18;10.93;;;;;;;27.76;49.96;99862.56;5027782;28;20112;-28
2022/07/25 05:44:05;;;;;;;13.88;11.40;;;;;;;27.91;49.06;99879.50;5030088;28;20444;-30
2022/07/25 05:46:34;;;;;;;15.13;11.23;;;;;;;27.75;50.17;99876.63;5029762;28;20025;-30
2022/07/25 05:49:00;;;;;;;13.80;11.57;;;;;;;28.03;48.74;99876.78;5028477;28;20791;-29
2022/07/25 05:51:26;;;;;;;14.32;11.50;;;;;;;27.99;48.38;99867.66;5028580;28;20035;-28
2022/07/25 05:53:51;;;;;;;14.18;11.70;;;;;;;27.99;49.81;99865.72;5028638;28;20156;-28
2022/07/25 05:56:17;;;;;;;13.80;11.73;;;;;;;28.10;49.34;99857.06;5030013;28;20112;-28
2022/07/25 05:58:42;;;;;;;14.63;11.85;;;;;;;28.31;48.32;99865.16;5029834;28;20665;-28
2022/07/25 06:01:11;;;;;;;12.55;11.25;;;;;;;28.38;48.64;99866.19;5029808;28;20026;-28
2022/07/25 06:03:37;;;;;;;15.40;11.80;;;;;;;28.27;49.16;99864.25;5028057;28;20410;-28
2022/07/25 06:06:02;;;;;;;15.63;12.30;;;;;;;28.22;48.29;99857.06;5028700;28;20425;-30
2022/07/25 06:08:29;;;;;;;13.00;11.20;;;;;;;28.36;48.11;99863.00;5028316;28;20029;-27
2022/07/25 06:10:58;;;;;;;13.35;12.02;;;;;;;28.41;49.05;99865.50;5028517;28;20041;-30
2022/07/25 06:13:25;;;;;;;14.25;12.40;;;;;;;28.31;47.56;99857.72;5029524;28;20080;-27
2022/07/25 06:15:51;;;;;;;13.15;11.70;;;;;;;28.43;45.99;99852.25;5027832;28;20212;-28
2022/07/25 06:18:16;;;;;;;13.85;11.75;;;;;;;28.45;46.16;99849.16;5027899;28;20404;-33
2022/07/25 06:20:42;;;;;;;13.65;12.25;;;;;;;28.42;47.68;99863.53;5029375;28;20127;-30
2022/07/25 06:23:07;;;;;;;14.55;11.65;;;;;;;28.65;46.45;99858.44;5029449;28;20100;-29
2022/07/25 06:25:33;;;;;;;14.13;12.10;;;;;;;28.67;46.90;99856.13;5028852;28;20034;-27
2022/07/25 06:27:58;;;;;;;13.68;11.23;;;;;;;28.64;46.06;99845.84;5029521;28;20025;-28
2022/07/25 06:30:24;;;;;;;15.77;11.27;;;;;;;28.73;46.88;99849.25;5029208;28;20039;-27
2022/07/25 06:32:49;;;;;;;14.68;12.27;;;;;;;28.99;46.39;99845.28;5027199;28;20026;-32
2022/07/25 06:35:16;;;;;;;13.95;11.60;;;;;;;29.07;47.06;99855.31;5027788;28;20068;-30
2022/07/25 06:37:41;;;;;;;13.65;12.25;;;;;;;29.04;46.86;99854.09;5027631;28;20086;-33
2022/07/25 06:40:07;;;;;;;13.57;12.10;;;;;;;29.21;46.55;99846.72;5027896;28;20033;-27
2022/07/25 06:42:38;;;;;;;16.85;12.43;;;;;;;29.12;46.14;99844.13;5027631;28;20300;-33
2022/07/25 06:45:05;;;;;;;13.77;11.93;;;;;;;28.56;48.02;99835.78;5027538;28;20561;-27
2022/07/25 06:47:30;;;;;;;15.45;12.15;;;;;;;28.72;48.37;99857.84;5027104;28;20743;-28
2022/07/25 06:49:56;;;;;;;14.13;11.70;;;;;;;28.78;48.33;99839.97;5029010;28;20034;-28
2022/07/25 06:52:21;;;;;;;16.50;11.90;;;;;;;28.75;50.00;99836.00;5028759;28;20747;-34
2022/07/25 06:54:47;;;;;;;13.52;11.88;;;;;;;29.15;48.73;99853.63;5029268;28;20120;-29
2022/07/25 06:57:12;;;;;;;14.15;11.13;;;;;;;28.85;48.14;99835.50;5044014;28;20037;-28
2022/07/25 06:59:38;;;;;;;13.20;11.80;;;;;;;28.84;48.23;99833.09;5026982;28;20088;-27
2022/07/25 07:02:03;;;;;;;16.23;11.50;;;;;;;28.90;48.57;99836.41;5028642;28;20098;-33
2022/07/25 07:04:28;;;;;;;13.70;12.07;;;;;;;28.80;48.22;99832.19;5028483;28;20033;-33
2022/07/25 07:06:54;;;;;;;13.98;12.02;;;;;;;28.82;48.17;99827.97;5028658;28;20017;-30
2022/07/25 07:09:19;;;;;;;16.35;11.93;;;;;;;29.01;48.62;99859.47;5028367;28;20029;-31
2022/07/25 07:11:45;;;;;;;14.48;11.63;;;;;;;29.06;48.83;99848.25;5029032;28;20481;-29
2022/07/25 07:14:10;;;;;;;12.98;10.68;;;;;;;29.09;48.34;99839.31;5028342;28;20185;-29
2022/07/25 07:16:36;;;;;;;13.20;11.30;;;;;;;29.25;48.25;99864.91;5027793;28;20556;-28
2022/07/25 07:19:01;;;;;;;13.35;10.77;;;;;;;29.37;46.99;99871.50;5027266;28;20037;-34
2022/07/25 07:21:26;;;;;;;15.07;11.00;;;;;;;29.48;47.38;99861.59;5028320;28;20420;-30
2022/07/25 07:23:52;;;;;;;14.20;10.70;;;;;;;29.76;45.80;99855.28;5028411;28;20060;-29
2022/07/25 07:26:17;;;;;;;15.18;10.90;;;;;;;29.70;47.16;99849.22;5028374;28;20029;-29
2022/07/25 07:28:43;;;;;;;16.00;11.65;;;;;;;29.94;47.34;99851.03;5028018;28;20029;-29
2022/07/25 07:31:08;;;;;;;12.10;10.65;;;;;;;30.27;44.92;99857.31;5027902;28;20021;-28
2022/07/25 07:33:36;;;;;;;13.07;11.15;;;;;;;30.48;45.63;99857.81;5026774;28;20021;-30
2022/07/25 07:36:02;;;;;;;13.10;11.00;;;;;;;30.66;43.27;99858.22;5026625;28;20044;-29
2022/07/25 07:38:27;;;;;;;12.35;10.85;;;;;;;30.82;44.82;99847.19;5027900;28;20025;-29
2022/07/25 07:40:53;;;;;;;15.43;11.32;;;;;;;30.77;43.33;99859.28;5028037;28;20055;-31
2022/07/25 07:43:19;;;;;;;12.70;10.43;;;;;;;30.88;43.03;99861.50;5026110;28;20083;-29
2022/07/25 07:45:45;;;;;;;11.48;9.95;;;;;;;30.79;42.66;99859.72;5026200;28;20033;-27
2022/07/25 07:48:10;;;;;;;21.02;12.75;;;;;;;31.11;42.75;99862.34;5028137;28;20083;-32
2022/07/25 07:50:37;;;;;;;18.42;14.95;;;;;;;31.41;42.68;99864.50;5027825;28;20041;-27
2022/07/25 07:53:02;;;;;;;13.48;12.07;;;;;;;31.72;41.63;99851.72;5027612;28;20025;-32
2022/07/25 07:55:48;;;;;;;12.98;11.13;;;;;;;32.01;42.74;99856.56;5027287;28;20033;-33
2022/07/25 07:58:16;;;;;;;14.90;11.77;;;;;;;31.44;40.22;99852.78;5025918;28;20037;-30
2022/07/25 08:00:47;;;;;;;12.35;11.05;;;;;;;31.15;41.07;99863.22;5026210;28;20043;-27
2022/07/25 08:03:15;;;;;;;14.00;10.15;;;;;;;31.20;40.60;99856.63;5027610;28;20125;-30
2022/07/25 08:05:43;;;;;;;12.27;10.55;;;;;;;31.08;40.64;99840.25;5025931;28;20120;-29
2022/07/25 08:08:10;;;;;;;16.13;11.07;;;;;;;31.37;41.98;99847.91;5027402;28;20029;-30
2022/07/25 08:10:39;;;;;;;19.58;11.30;;;;;;;31.40;41.97;99852.69;5025953;28;20032;-31
2022/07/25 08:13:16;;;;;;;12.77;11.15;;;;;;;31.55;42.08;99862.06;5025989;28;20066;-33
2022/07/25 08:15:43;;;;;;;14.55;11.60;;;;;;;31.59;39.98;99854.66;5042003;28;20064;-32
2022/07/25 08:18:09;;;;;;;14.32;11.00;;;;;;;31.58;41.29;99850.28;5025826;28;20120;-32
2022/07/25 08:20:34;;;;;;;13.00;11.00;;;;;;;31.86;38.63;99865.75;5025986;28;20163;-28
2022/07/25 08:23:00;;;;;;;11.48;10.27;;;;;;;31.94;38.23;99861.94;5027251;28;20100;-28
2022/07/25 08:25:26;;;;;;;17.90;11.32;;;;;;;31.89;39.57;99856.72;5025234;28;20370;-28
2022/07/25 08:27:52;;;;;;;13.25;12.00;;;;;;;31.96;38.23;99865.13;5026711;28;20021;-30
2022/07/25 08:30:17;;;;;;;11.93;9.88;;;;;;;32.19;36.05;99856.06;5027088;28;20832;-31
2022/07/25 08:32:46;;;;;;;11.93;10.55;;;;;;;32.35;36.99;99869.72;5027090;28;20044;-30
2022/07/25 08:35:11;;;;;;;14.25;11.35;;;;;;;32.47;37.43;99868.69;5026963;28;20041;-30
2022/07/25 08:37:37;;;;;;;15.68;9.93;;;;;;;32.71;36.87;99859.97;5026754;28;20079;-28
2022/07/25 08:40:03;;;;;;;12.75;9.95;;;;;;;32.74;37.33;99867.53;5025356;28;20029;-28
2022/07/25 08:42:29;;;;;;;13.50;10.05;;;;;;;32.93;39.76;99868.56;5025542;28;20026;-33
2022/07/25 08:45:01;;;;;;;13.88;9.60;;;;;;;33.21;37.18;99874.47;5025482;28;20088;-30
2022/07/25 08:47:28;;;;;;;10.68;9.57;;;;;;;33.37;34.53;99879.78;5026938;28;20028;-28
2022/07/25 08:49:54;;;;;;;13.30;10.93;;;;;;;33.48;34.99;99873.56;5025595;28;20040;-33
2022/07/25 08:52:21;;;;;;;11.63;10.37;;;;;;;33.61;34.74;99874.91;5025280;28;20417;-28
2022/07/25 08:54:47;;;;;;;14.80;10.73;;;;;;;33.70;36.03;99860.78;5025715;28;20036;-31
2022/07/25 08:57:13;;;;;;;12.18;9.80;;;;;;;32.57;36.66;99855.09;5025475;28;20302;-31
2022/07/25 08:59:38;;;;;;;18.42;11.10;;;;;;;32.14;37.45;99864.63;5025109;28;20026;-31
2022/07/25 09:02:07;;;;;;;12.45;10.45;;;;;;;32.11;36.97;99862.63;5026664;28;20065;-29
2022/07/25 09:04:34;;;;;;;12.60;9.80;;;;;;;32.63;36.56;99858.28;5025148;28;20112;-36
2022/07/25 09:07:03;;;;;;;11.20;9.85;;;;;;;33.07;36.13;99841.09;5026608;28;20107;-28
2022/07/25 09:09:34;;;;;;;11.23;9.95;;;;;;;32.72;36.71;99869.88;5026709;28;20018;-32
2022/07/25 09:12:00;;;;;;;12.25;10.88;;;;;;;32.74;36.34;99862.00;5025210;28;20418;-31
2022/07/25 09:14:28;;;;;;;11.93;10.52;;;;;;;32.31;37.88;99842.06;5025312;28;20584;-29
2022/07/25 09:16:54;;;;;;;12.10;10.52;;;;;;;32.58;37.25;99842.06;5025017;28;20111;-28
2022/07/25 09:19:22;;;;;;;12.75;11.15;;;;;;;32.83;37.54;99858.97;5024689;28;20044;-31
2022/07/25 09:22:01;;;;;;;11.40;10.20;;;;;;;33.31;36.62;99842.59;5025575;28;20025;-28
2022/07/25 09:24:28;;;;;;;12.55;11.23;;;;;;;33.72;35.20;99855.66;5025304;28;20021;-28
2022/07/25 09:26:55;;;;;;;12.07;10.55;;;;;;;33.41;35.31;99860.47;5025315;28;20064;-30
2022/07/25 09:29:25;;;;;;;13.52;10.93;;;;;;;33.07;35.98;99857.69;5024697;28;20413;-34
2022/07/25 09:31:52;;;;;;;13.52;11.32;;;;;;;32.72;37.24;99855.28;5025243;28;20033;-29
2022/07/25 09:34:30;;;;;;;;;;;;;;;32.49;37.30;99855.31;5027249;28;20029;-28
2022/07/25 09:36:57;;;;;;;12.05;10.82;;;;;;;32.53;38.26;99856.97;5025065;28;19913;-28
2022/07/25 09:39:51;;;;;;;14.45;11.20;;;;;;;32.68;37.70;99851.69;5027108;28;20065;-32
2022/07/25 09:42:22;;;;;;;12.32;11.02;;;;;;;33.01;36.14;99845.38;5020824;28;20045;-28
2022/07/25 09:44:59;;;;;;;17.02;15.32;;;;;;;33.79;35.12;99858.47;5045367;28;20116;-28
2022/07/25 09:47:25;;;;;;;41.80;37.22;;;;;;;34.16;34.25;99849.31;5028483;28;20113;-29
2022/07/25 09:49:51;;;;;;;12.13;10.85;;;;;;;34.28;33.55;99851.78;5028657;28;20029;-31
2022/07/25 09:52:17;;;;;;;12.85;10.70;;;;;;;34.17;34.20;99850.94;5028643;28;20022;-30
2022/07/25 09:54:42;;;;;;;13.20;10.52;;;;;;;34.18;34.31;99861.63;5028538;28;20497;-28
2022/07/25 09:57:08;;;;;;;14.80;10.30;;;;;;;34.22;34.57;99839.47;5030363;28;20052;-29
2022/07/25 09:59:34;;;;;;;11.52;10.35;;;;;;;34.34;33.51;99853.00;5027968;28;20056;-28
2022/07/25 10:02:08;;;;;;;13.55;10.70;;;;;;;34.73;34.06;99840.59;5028140;28;20122;-29
2022/07/25 10:04:42;;;;;;;11.80;10.57;;;;;;;34.85;32.71;99839.47;5028232;28;20485;-31
2022/07/25 10:07:11;;;;;;;12.38;11.07;;;;;;;34.51;33.47;99842.41;5028294;28;20033;-28
2022/07/25 10:09:48;;;;;;;10.82;9.73;;;;;;;34.82;32.64;99835.50;5029136;28;20037;-31
2022/07/25 10:12:18;;;;;;;11.90;10.60;;;;;;;34.80;32.40;99832.34;5028364;28;20024;-31
2022/07/25 10:15:10;;;;;;;11.70;10.25;;;;;;;34.84;32.65;99830.38;5028313;28;20048;-29
2022/07/25 10:17:37;;;;;;;11.50;10.23;;;;;;;34.58;32.81;99842.47;5010762;28;20041;-34
2022/07/25 10:20:05;;;;;;;12.20;10.95;;;;;;;34.95;32.33;99830.41;5028014;28;20036;-31
2022/07/25 10:22:47;;;;;;;11.35;10.07;;;;;;;34.48;32.28;99826.59;5019051;28;20021;-29
2022/07/25 10:25:15;;;;;;;11.77;10.55;;;;;;;34.56;32.10;99817.16;5025327;28;20025;-28
2022/07/25 10:27:43;;;;;;;11.48;10.35;;;;;;;34.30;33.66;99827.28;5027252;28;20818;-29
2022/07/25 10:30:19;;;;;;;11.63;9.95;;;;;;;34.15;34.20;99820.06;5027698;28;20045;-29
2022/07/25 10:32:58;;;;;;;13.80;10.43;;;;;;;34.45;33.45;99813.50;5025775;28;20468;-34
2022/07/25 10:35:25;;;;;;;13.45;11.13;;;;;;;34.66;32.95;99805.34;5025093;28;20045;-33
2022/07/25 10:37:53;;;;;;;13.60;10.80;;;;;;;34.52;32.81;99816.34;5027513;28;20025;-31
2022/07/25 10:40:38;;;;;;;12.20;10.35;;;;;;;34.86;31.88;99813.34;5026276;28;20037;-33
2022/07/25 10:43:13;;;;;;;11.70;10.50;;;;;;;35.25;32.80;99802.41;5025028;28;20029;-30
2022/07/25 10:45:47;;;;;;;13.55;12.18;;;;;;;35.42;33.12;99798.06;5027385;28;20021;-29
2022/07/25 10:48:21;;;;;;;14.40;10.80;;;;;;;35.91;31.59;99806.81;5026075;28;20021;-29
2022/07/25 10:51:00;;;;;;;12.18;10.73;;;;;;;35.59;31.29;99802.84;5023551;28;20634;-32
2022/07/25 10:53:45;;;;;;;12.75;10.80;;;;;;;34.81;33.38;99801.44;5023431;28;20493;-31
2022/07/25 10:56:19;;;;;;;11.85;10.68;;;;;;;34.74;32.58;99800.66;5026166;28;20029;-30
2022/07/25 10:58:59;;;;;;;12.30;10.60;;;;;;;35.42;32.30;99798.06;5023776;28;20045;-34
2022/07/25 11:01:26;;;;;;;11.88;10.30;;;;;;;35.41;31.38;99782.59;5023449;28;20602;-30
2022/07/25 11:03:54;;;;;;;12.25;10.68;;;;;;;34.78;32.38;99784.84;5025812;28;20033;-30
2022/07/25 11:06:40;;;;;;;12.75;10.90;;;;;;;34.52;32.82;99800.50;5025936;28;20091;-32
2022/07/25 11:09:14;;;;;;;13.88;10.65;;;;;;;34.18;33.47;99794.38;5040216;28;20030;-31
2022/07/25 11:11:47;;;;;;;15.23;11.43;;;;;;;34.62;32.46;99771.28;5026655;28;20645;-29
2022/07/25 11:14:32;;;;;;;87.15;18.00;;;;;;;35.40;32.50;99794.91;5026182;28;20042;-31
2022/07/25 11:17:13;;;;;;;12.25;10.95;;;;;;;35.36;32.79;99775.47;5026302;28;20787;-36
2022/07/25 11:19:40;;;;;;;12.13;10.93;;;;;;;35.42;31.78;99785.00;5022920;28;20160;-29